Wetterdaten: Donnerstag / Freitag, 19.08.2016
Datum Zeit Temp. A. Feuchte A. Luftdruck Regen Wind Richtung Richtung Taupunkt Windchill Windben
18.08.2016 10:00 18,9 C 74 % 1010,5 hPa 0,0 l/m 0,0 km/h N 360 14,2 C 18,9 C 1,6 km/h
18.08.2016 10:15 19,6 C 72 % 1010,4 hPa 0,0 l/m 0,1 km/h N 360 14,4 C 19,6 C 3,2 km/h
18.08.2016 10:30 20,5 C 71 % 1010,4 hPa 0,0 l/m 0,0 km/h N 360 15,1 C 20,5 C 1,6 km/h
18.08.2016 10:45 21,1 C 68 % 1010,5 hPa 0,0 l/m 0,0 km/h N 360 15,0 C 21,1 C 1,6 km/h
18.08.2016 11:00 21,3 C 68 % 1010,5 hPa 0,0 l/m 0,2 km/h N 360 15,1 C 21,3 C 3,2 km/h
18.08.2016 11:15 22,1 C 66 % 1010,4 hPa 0,0 l/m 0,1 km/h N 360 15,4 C 22,1 C 3,2 km/h
18.08.2016 11:30 23,2 C 63 % 1010,3 hPa 0,0 l/m 0,3 km/h N 360 15,8 C 23,2 C 3,2 km/h
18.08.2016 12:00 23,3 C 60 % 1010,1 hPa 0,0 l/m 0,0 km/h N 360 15,1 C 23,3 C 3,2 km/h
18.08.2016 12:30 23,2 C 57 % 1009,9 hPa 0,0 l/m 1,6 km/h N 360 14,2 C 23,2 C 8,0 km/h
18.08.2016 13:00 24,7 C 52 % 1009,8 hPa 0,0 l/m 0,0 km/h N 360 14,2 C 24,7 C 4,8 km/h
18.08.2016 13:30 25,6 C 47 % 1009,7 hPa 0,0 l/m 0,0 km/h N 360 13,4 C 25,6 C 3,2 km/h
18.08.2016 14:00 26,5 C 45 % 1009,3 hPa 0,0 l/m 0,0 km/h N 360 13,6 C 26,5 C 4,8 km/h
18.08.2016 14:30 25,9 C 46 % 1009,3 hPa 0,0 l/m 0,0 km/h N 360 13,4 C 25,9 C 3,2 km/h
18.08.2016 15:00 25,6 C 46 % 1009,1 hPa 0,0 l/m 0,0 km/h N 360 13,1 C 25,6 C 8,0 km/h
18.08.2016 15:30 25,6 C 46 % 1008,9 hPa 0,0 l/m 0,0 km/h N 360 13,1 C 25,6 C 6,4 km/h
18.08.2016 16:00 25,4 C 45 % 1008,7 hPa 0,0 l/m 0,0 km/h N 360 12,6 C 25,4 C 4,8 km/h
18.08.2016 16:30 25,6 C 46 % 1008,5 hPa 0,0 l/m 0,0 km/h N 360 13,1 C 25,6 C 4,8 km/h
18.08.2016 17:00 24,9 C 59 % 1008,7 hPa 0,0 l/m 3,2 km/h N 360 16,3 C 24,9 C 19,3 km/h
18.08.2016 17:30 23,0 C 66 % 1008,5 hPa 0,0 l/m 4,8 km/h N 360 16,3 C 23,0 C 22,5 km/h
18.08.2016 18:00 22,5 C 69 % 1008,4 hPa 0,0 l/m 3,2 km/h N 360 16,5 C 22,5 C 14,5 km/h
18.08.2016 18:30 22,4 C 69 % 1008,7 hPa 0,0 l/m 3,2 km/h N 360 16,4 C 22,4 C 9,7 km/h
18.08.2016 19:00 22,2 C 68 % 1008,8 hPa 0,0 l/m 3,2 km/h N 360 16,0 C 22,2 C 9,7 km/h
18.08.2016 19:30 21,8 C 69 % 1008,8 hPa 0,0 l/m 1,6 km/h N 360 15,9 C 21,8 C 11,3 km/h
18.08.2016 20:00 21,2 C 71 % 1009,1 hPa 0,0 l/m 0,0 km/h N 360 15,7 C 21,2 C 4,8 km/h
18.08.2016 20:30 20,2 C 73 % 1009,3 hPa 0,0 l/m 0,0 km/h N 0 15,2 C 20,2 C 0,0 km/h
18.08.2016 21:00 19,5 C 77 % 1009,2 hPa 0,0 l/m 0,0 km/h N 360 15,4 C 19,5 C 9,7 km/h
18.08.2016 21:30 19,4 C 79 % 1009,4 hPa 0,0 l/m 0,0 km/h N 360 15,7 C 19,4 C 1,6 km/h
18.08.2016 22:00 19,2 C 79 % 1009,9 hPa 0,0 l/m 0,0 km/h N 0 15,5 C 19,2 C 0,0 km/h
18.08.2016 22:30 18,6 C 79 % 1009,9 hPa 0,0 l/m 0,0 km/h N 0 14,9 C 18,6 C 0,0 km/h
18.08.2016 23:00 18,0 C 79 % 1009,9 hPa 0,0 l/m 0,0 km/h N 360 14,3 C 18,0 C 1,6 km/h
18.08.2016 23:30 17,4 C 79 % 1010,0 hPa 0,0 l/m 0,0 km/h N 0 13,7 C 17,4 C 0,0 km/h
19.08.2016 00:00 16,7 C 80 % 1010,3 hPa 0,0 l/m 0,0 km/h N 0 13,2 C 16,7 C 0,0 km/h
19.08.2016 00:30 16,1 C 80 % 1010,3 hPa 0,0 l/m 0,0 km/h N 0 12,6 C 16,1 C 0,0 km/h
19.08.2016 01:00 15,5 C 81 % 1010,3 hPa 0,0 l/m 0,0 km/h N 360 12,3 C 15,5 C 1,6 km/h
19.08.2016 01:30 14,9 C 81 % 1010,4 hPa 0,0 l/m 0,0 km/h N 360 11,7 C 14,9 C 1,6 km/h
19.08.2016 02:00 14,5 C 82 % 1010,3 hPa 0,0 l/m 0,0 km/h N 360 11,5 C 14,5 C 1,6 km/h
19.08.2016 02:30 14,1 C 82 % 1010,2 hPa 0,0 l/m 0,0 km/h N 0 11,1 C 14,1 C 0,0 km/h
19.08.2016 03:00 13,9 C 82 % 1010,2 hPa 0,0 l/m 0,0 km/h N 360 10,9 C 13,9 C 1,6 km/h
19.08.2016 03:30 14,2 C 82 % 1010,1 hPa 0,0 l/m 0,0 km/h N 360 11,2 C 14,2 C 1,6 km/h
19.08.2016 04:00 14,4 C 82 % 1010,2 hPa 0,0 l/m 0,0 km/h N 360 11,4 C 14,4 C 4,8 km/h
19.08.2016 04:30 14,6 C 82 % 1010,1 hPa 0,0 l/m 0,0 km/h N 360 11,6 C 14,6 C 6,4 km/h
19.08.2016 05:00 14,7 C 82 % 1010,3 hPa 0,0 l/m 0,0 km/h N 0 11,7 C 14,7 C 0,0 km/h
19.08.2016 05:30 14,8 C 82 % 1010,5 hPa 0,0 l/m 0,0 km/h N 0 11,8 C 14,8 C 0,0 km/h
19.08.2016 05:45 14,8 C 82 % 1010,6 hPa 0,0 l/m 0,0 km/h N 360 11,8 C 14,8 C 0,0 km/h
19.08.2016 06:00 14,7 C 82 % 1010,6 hPa 0,0 l/m 0,0 km/h N 360 11,7 C 14,7 C 0,0 km/h
19.08.2016 06:15 14,8 C 82 % 1010,7 hPa 0,0 l/m 0,0 km/h N 360 11,8 C 14,8 C 0,0 km/h
19.08.2016 06:30 14,8 C 82 % 1010,7 hPa 0,0 l/m 0,0 km/h N 360 11,8 C 14,8 C 0,0 km/h
19.08.2016 06:45 14,8 C 82 % 1010,7 hPa 0,0 l/m 0,0 km/h N 360 11,8 C 14,8 C 0,0 km/h
19.08.2016 07:00 14,9 C 82 % 1010,9 hPa 0,0 l/m 0,0 km/h N 360 11,9 C 14,9 C 0,0 km/h
19.08.2016 07:15 15,1 C 82 % 1011,1 hPa 0,0 l/m 0,0 km/h N 360 12,0 C 15,1 C 0,0 km/h
19.08.2016 07:30 15,4 C 82 % 1011,2 hPa 0,0 l/m 0,0 km/h N 360 12,3 C 15,4 C 0,0 km/h
19.08.2016 07:45 15,8 C 82 % 1011,2 hPa 0,0 l/m 0,0 km/h N 360 12,7 C 15,8 C 1,6 km/h
19.08.2016 08:00 16,0 C 82 % 1011,4 hPa 0,0 l/m 0,0 km/h N 360 12,9 C 16,0 C 0,0 km/h
19.08.2016 08:15 16,5 C 82 % 1011,6 hPa 0,0 l/m 0,0 km/h N 360 13,4 C 16,5 C 0,0 km/h
19.08.2016 08:30 17,1 C 82 % 1011,7 hPa 0,0 l/m 0,0 km/h N 360 14,0 C 17,1 C 3,2 km/h
19.08.2016 08:45 17,4 C 82 % 1011,7 hPa 0,0 l/m 0,0 km/h N 360 14,3 C 17,4 C 1,6 km/h
19.08.2016 09:00 17,9 C 82 % 1011,8 hPa 0,0 l/m 0,0 km/h N 360 14,8 C 17,9 C 1,6 km/h
19.08.2016 09:15 18,3 C 82 % 1012,0 hPa 0,0 l/m 0,0 km/h N 360 15,2 C 18,3 C 0,0 km/h
19.08.2016 09:30 18,5 C 81 % 1012,1 hPa 0,0 l/m 0,0 km/h N 360 15,2 C 18,5 C 1,6 km/h
19.08.2016 09:45 18,7 C 80 % 1012,1 hPa 0,0 l/m 0,0 km/h N 360 15,2 C 18,7 C 0,0 km/h
_ Min-Zeit 03:00 14:00 18:00 - 10:00 - - 03:00 03:00 20:30
Minimum _ 13,9 C 45 % 1008,4 hPa - 0,0 km/h - - 10,9 C 13,9 C 0,0 km/h
_ Max-Zeit 14:00 02:00 09:30 10:00 17:30 - - 18:00 14:00 17:30
Maximum _ 26,5 C 82 % 1012,1 hPa 0,0 l/m 4,8 km/h
N
- - 16,5 C 26,5 C 22,5 km/h
N
Durchschnitt _ 19,4 C 71 % 1010,0 hPa #0,0 l/m 0,4 km/h N - 13,7 C 19,4 C 3,8 km/h